Time;durP1;ratioP1;P1;durP2;ratioP2;P2;SDS_P1;SDS_P2;PMS_P1;PMS_P2;Temp;Humidity;BMP_temperature;BMP_pressure;BME280_temperature;BME280_humidity;BME280_pressure;Samples;Min_cycle;Max_cycle;Signal;HPM_P1;HPM_P2
2023/04/17 00:03:16;;;;;;;;;;;;;;;18.16;43.00;95879.59;10469193;28;2008;-61
2023/04/17 00:08:17;;;;;;;;;;;;;;;18.14;42.70;95868.56;10453967;28;2012;-61
2023/04/17 00:13:17;;;;;;;;;;;;;;;18.14;42.71;95862.53;10480329;28;2081;-61
2023/04/17 00:18:17;;;;;;;;;;;;;;;18.12;42.74;95869.84;10475030;28;2079;-61
2023/04/17 00:23:18;;;;;;;;;;;;;;;18.11;42.64;95863.06;10498540;28;1992;-61
2023/04/17 00:28:18;;;;;;;;;;;;;;;18.10;42.48;95871.94;10469795;28;2092;-61
2023/04/17 00:33:19;;;;;;;;;;;;;;;18.07;42.58;95865.41;10450246;28;2092;-62
2023/04/17 00:38:20;;;;;;;;;;;;;;;18.06;42.65;95871.69;10470767;28;2072;-62
2023/04/17 00:43:23;;;;;;;;;;;;;;;18.06;42.56;95866.44;10473016;28;2027;-61
2023/04/17 00:48:23;;;;;;;;;;;;;;;18.05;42.46;95870.13;10484582;28;2008;-61
2023/04/17 00:53:24;;;;;;;;;;;;;;;18.03;42.43;95866.97;10482146;28;2048;-63
2023/04/17 00:58:25;;;;;;;;;;;;;;;18.01;42.41;95863.78;10465422;28;2091;-64
2023/04/17 01:03:28;;;;;;;;;;;;;;;18.00;42.42;95856.97;10472455;28;2054;-63
2023/04/17 01:08:38;;;;;;;;;;;;;;;17.98;42.52;95848.56;10473369;28;2074;-63
2023/04/17 01:13:45;;;;;;;;;;;;;;;17.98;42.23;95845.13;10494416;28;2046;-63
2023/04/17 01:18:47;;;;;;;;;;;;;;;17.96;42.42;95852.47;10478013;28;2099;-63
2023/04/17 01:23:50;;;;;;;;;;;;;;;17.96;42.24;95849.84;10499515;28;2259;-61
2023/04/17 01:28:55;;;;;;;;;;;;;;;17.95;42.19;95850.91;10498075;28;2038;-63
2023/04/17 01:33:55;;;;;;;;;;;;;;;17.93;41.99;95850.38;10493358;28;2047;-63
2023/04/17 01:38:55;;;;;;;;;;;;;;;17.92;42.08;95857.44;10502225;28;2340;-63
2023/04/17 01:43:56;;;;;;;;;;;;;;;17.90;42.01;95851.66;10484778;28;2095;-63
2023/04/17 01:48:57;;;;;;;;;;;;;;;17.89;42.14;95866.59;10493417;28;2032;-63
2023/04/17 01:53:57;;;;;;;;;;;;;;;17.89;42.04;95860.56;10504805;28;2058;-63
2023/04/17 01:58:57;;;;;;;;;;;;;;;17.85;42.01;95862.91;10479959;28;2092;-63
2023/04/17 02:03:58;;;;;;;;;;;;;;;17.84;41.99;95861.34;10469553;28;2027;-63
2023/04/17 02:08:58;;;;;;;;;;;;;;;17.84;41.95;95853.47;10485085;28;2043;-63
2023/04/17 02:13:59;;;;;;;;;;;;;;;17.81;42.08;95861.84;10476172;28;2026;-64
2023/04/17 02:18:59;;;;;;;;;;;;;;;17.82;41.97;95854.75;10476438;28;2474;-63
2023/04/17 02:23:59;;;;;;;;;;;;;;;17.81;41.87;95858.41;10472059;28;2023;-64
2023/04/17 02:29:00;;;;;;;;;;;;;;;17.80;41.79;95862.84;10483832;28;2096;-63
2023/04/17 02:34:00;;;;;;;;;;;;;;;17.78;41.77;95861.56;10468432;28;2026;-63
2023/04/17 02:39:00;;;;;;;;;;;;;;;17.75;41.67;95854.97;10472826;28;2387;-63
2023/04/17 02:44:01;;;;;;;;;;;;;;;17.76;41.64;95861.78;10485667;28;2087;-64
2023/04/17 02:49:02;;;;;;;;;;;;;;;17.74;41.73;95858.63;10467514;28;2155;-64
2023/04/17 02:54:03;;;;;;;;;;;;;;;17.75;41.72;95859.44;10474917;28;2012;-60
2023/04/17 02:59:04;;;;;;;;;;;;;;;17.74;41.63;95855.25;10478141;28;2427;-63
2023/04/17 03:04:05;;;;;;;;;;;;;;;17.73;41.56;95859.69;10486081;28;2023;-63
2023/04/17 03:09:05;;;;;;;;;;;;;;;17.69;41.56;95853.38;10457053;28;2164;-63
2023/04/17 03:14:06;;;;;;;;;;;;;;;17.71;41.65;95850.50;10463872;28;2016;-63
2023/04/17 03:19:06;;;;;;;;;;;;;;;17.69;41.58;95848.13;10469306;28;2074;-63
2023/04/17 03:24:10;;;;;;;;;;;;;;;17.68;41.44;95851.00;10487135;28;2024;-65
2023/04/17 03:29:10;;;;;;;;;;;;;;;17.67;41.54;95852.81;10475607;28;2021;-63
2023/04/17 03:34:10;;;;;;;;;;;;;;;17.66;41.39;95853.84;10470653;28;2070;-64
2023/04/17 03:39:12;;;;;;;;;;;;;;;17.66;41.54;95859.09;10457289;28;2033;-63
2023/04/17 03:44:13;;;;;;;;;;;;;;;17.64;41.45;95855.94;10481366;28;1941;-63
2023/04/17 03:49:14;;;;;;;;;;;;;;;17.64;41.19;95857.78;10466481;28;2008;-63
2023/04/17 03:54:15;;;;;;;;;;;;;;;17.62;41.41;95858.03;10460007;28;2064;-63
2023/04/17 03:59:15;;;;;;;;;;;;;;;17.63;41.26;95864.88;10477317;28;2052;-63
2023/04/17 04:04:15;;;;;;;;;;;;;;;17.61;41.32;95869.56;10465077;28;2060;-63
2023/04/17 04:09:16;;;;;;;;;;;;;;;17.62;41.36;95880.84;10452191;28;2001;-63
2023/04/17 04:14:16;;;;;;;;;;;;;;;17.66;41.45;95874.84;10472971;28;2140;-63
2023/04/17 04:19:17;;;;;;;;;;;;;;;17.74;41.28;95873.59;10470526;28;2074;-63
2023/04/17 04:24:19;;;;;;;;;;;;;;;17.81;41.34;95877.56;10460010;28;2232;-63
2023/04/17 04:29:24;;;;;;;;;;;;;;;17.91;41.22;95874.19;10427663;28;3592;-63
2023/04/17 04:34:28;;;;;;;;;;;;;;;18.03;41.07;95871.41;10476754;28;2131;-63
2023/04/17 04:39:29;;;;;;;;;;;;;;;18.10;40.91;95867.50;10472961;28;2028;-63
2023/04/17 04:44:29;;;;;;;;;;;;;;;18.20;40.95;95872.78;10462962;28;2028;-63
2023/04/17 04:49:30;;;;;;;;;;;;;;;18.27;40.58;95870.75;10467504;28;2013;-63
2023/04/17 04:54:30;;;;;;;;;;;;;;;18.34;40.68;95865.25;10451555;28;2102;-63
2023/04/17 04:59:31;;;;;;;;;;;;;;;18.41;40.51;95858.72;10462922;28;2088;-63
2023/04/17 05:04:32;;;;;;;;;;;;;;;18.46;40.44;95871.13;10475301;28;2164;-63
2023/04/17 05:09:34;;;;;;;;;;;;;;;18.49;40.30;95881.09;10473686;28;2023;-63
2023/04/17 05:14:35;;;;;;;;;;;;;;;18.54;40.12;95889.00;10480265;28;2051;-63
2023/04/17 05:19:35;;;;;;;;;;;;;;;18.55;40.23;95885.31;10462537;28;2071;-63
2023/04/17 05:24:36;;;;;;;;;;;;;;;18.58;40.11;95887.44;10472143;28;2036;-63
2023/04/17 05:29:36;;;;;;;;;;;;;;;18.59;40.05;95884.53;10473794;28;1970;-61
2023/04/17 05:34:36;;;;;;;;;;;;;;;18.62;39.92;95891.91;10467738;28;2045;-61
2023/04/17 05:39:37;;;;;;;;;;;;;;;18.63;39.92;95896.09;10473846;28;2001;-61
2023/04/17 05:44:42;;;;;;;;;;;;;;;18.67;40.18;95899.00;10479832;28;2131;-62
2023/04/17 05:49:43;;;;;;;;;;;;;;;18.74;40.07;95899.56;10462429;28;1984;-62
2023/04/17 05:54:45;;;;;;;;;;;;;;;18.79;40.05;95912.72;10479687;28;2185;-62
2023/04/17 05:59:48;;;;;;;;;;;;;;;18.85;40.15;95910.88;10459692;28;1982;-62
2023/04/17 06:04:50;;;;;;;;;;;;;;;18.89;39.96;95912.75;10456857;28;2083;-62
2023/04/17 06:10:01;;;;;;;;;;;;;;;18.95;39.83;95922.22;10476982;28;2052;-62
2023/04/17 06:15:04;;;;;;;;;;;;;;;19.00;39.90;95926.69;10476395;28;2203;-62
2023/04/17 06:20:08;;;;;;;;;;;;;;;19.02;39.85;95935.13;10474426;28;2124;-61
2023/04/17 06:25:10;;;;;;;;;;;;;;;19.07;39.75;95930.66;10467352;28;2058;-60
2023/04/17 06:30:11;;;;;;;;;;;;;;;19.10;39.71;95938.00;10472703;28;2119;-61
2023/04/17 06:35:12;;;;;;;;;;;;;;;19.13;39.58;95934.88;10465638;28;2312;-61
2023/04/17 06:40:13;;;;;;;;;;;;;;;19.16;39.69;95939.63;10470024;28;2081;-61
2023/04/17 06:45:15;;;;;;;;;;;;;;;19.17;39.49;95930.66;10458833;28;2075;-61
2023/04/17 06:50:15;;;;;;;;;;;;;;;19.22;39.15;95932.53;10475649;28;2035;-62
2023/04/17 06:55:17;;;;;;;;;;;;;;;19.20;39.16;95938.03;10462884;28;2052;-62
2023/04/17 07:00:18;;;;;;;;;;;;;;;19.22;39.08;95941.22;10466447;28;2004;-62
2023/04/17 07:05:28;;;;;;;;;;;;;;;19.22;39.04;95943.84;10455911;28;2055;-62
2023/04/17 07:10:29;;;;;;;;;;;;;;;19.25;38.95;95945.94;10481629;28;2027;-61
2023/04/17 07:15:30;;;;;;;;;;;;;;;19.25;38.67;95943.28;10474183;28;2277;-62
2023/04/17 07:20:31;;;;;;;;;;;;;;;19.24;38.92;95954.88;10462994;28;2055;-62
2023/04/17 07:25:31;;;;;;;;;;;;;;;19.23;39.04;95948.03;10464527;28;2020;-62
2023/04/17 07:30:31;;;;;;;;;;;;;;;19.22;38.90;95953.56;10465173;28;2006;-62
2023/04/17 07:35:32;;;;;;;;;;;;;;;19.21;38.96;95958.00;10475568;28;2045;-62
2023/04/17 07:40:34;;;;;;;;;;;;;;;19.17;39.49;95962.22;10473218;28;2055;-62
2023/04/17 07:45:35;;;;;;;;;;;;;;;19.16;39.32;95963.28;10470109;28;2067;-62
2023/04/17 07:50:35;;;;;;;;;;;;;;;19.13;39.43;95968.22;10466145;28;2005;-62
2023/04/17 07:55:36;;;;;;;;;;;;;;;19.07;39.64;95972.69;10480478;28;2346;-62
2023/04/17 08:00:42;;;;;;;;;;;;;;;19.06;39.58;95972.97;10468286;28;2008;-63
2023/04/17 08:05:43;;;;;;;;;;;;;;;19.03;39.65;95982.13;10462217;28;2043;-63
2023/04/17 08:10:44;;;;;;;;;;;;;;;19.00;39.88;95990.53;10439785;28;2133;-62
2023/04/17 08:15:45;;;;;;;;;;;;;;;18.96;39.82;95983.44;10448678;28;2063;-62
2023/04/17 08:20:45;;;;;;;;;;;;;;;18.94;39.85;95996.81;10460787;28;2055;-62
2023/04/17 08:25:47;;;;;;;;;;;;;;;18.89;40.03;95991.53;10470641;28;2043;-62
2023/04/17 08:30:47;;;;;;;;;;;;;;;18.87;39.97;95998.91;10459471;28;2019;-62
2023/04/17 08:35:47;;;;;;;;;;;;;;;18.85;40.18;96000.97;10472029;28;2139;-62
2023/04/17 08:40:50;;;;;;;;;;;;;;;18.79;40.16;96002.00;10457734;28;2003;-62
2023/04/17 08:45:54;;;;;;;;;;;;;;;18.78;40.27;96005.66;10461154;28;2217;-62
2023/04/17 08:50:55;;;;;;;;;;;;;;;18.75;40.30;96003.56;10473677;28;2012;-61
2023/04/17 08:55:56;;;;;;;;;;;;;;;18.74;40.22;96003.81;10470684;28;1968;-61
2023/04/17 09:01:00;;;;;;;;;;;;;;;18.70;40.40;96003.53;10464314;28;2112;-61
2023/04/17 09:06:02;;;;;;;;;;;;;;;18.65;40.36;96006.91;10452117;28;1996;-63
2023/04/17 09:11:14;;;;;;;;;;;;;;;18.64;40.40;96013.22;10476452;28;2046;-63
2023/04/17 09:16:15;;;;;;;;;;;;;;;18.61;40.42;96008.47;10477839;28;2020;-62
2023/04/17 09:21:17;;;;;;;;;;;;;;;18.60;40.47;95998.22;10471560;28;1982;-63
2023/04/17 09:26:19;;;;;;;;;;;;;;;18.57;40.54;95998.72;10477936;28;2061;-62
2023/04/17 09:31:25;;;;;;;;;;;;;;;18.56;40.46;96003.22;10476003;28;2050;-62
2023/04/17 09:36:26;;;;;;;;;;;;;;;18.54;40.28;95994.78;10475502;28;1977;-63
2023/04/17 09:41:38;;;;;;;;;;;;;;;18.53;40.42;95997.66;10472480;28;2048;-62
2023/04/17 09:46:40;;;;;;;;;;;;;;;18.49;40.51;95994.75;10469872;28;2099;-63
2023/04/17 09:51:40;;;;;;;;;;;;;;;18.49;40.40;95999.22;10471697;28;2020;-63
2023/04/17 09:56:42;;;;;;;;;;;;;;;18.47;40.45;96002.09;10456980;28;2103;-63
2023/04/17 10:01:43;;;;;;;;;;;;;;;18.45;40.52;95998.94;10470242;28;2037;-63
2023/04/17 10:06:44;;;;;;;;;;;;;;;18.42;40.79;95996.78;10472880;28;2025;-62
2023/04/17 10:11:44;;;;;;;;;;;;;;;18.42;40.74;95991.53;10468586;28;2017;-62
2023/04/17 10:16:47;;;;;;;;;;;;;;;18.41;40.65;95989.16;10482464;28;2036;-63
2023/04/17 10:22:07;;;;;;;;;;;;;;;18.40;40.61;95987.59;10467793;28;2034;-62
2023/04/17 10:27:34;;;;;;;;;;;;;;;18.38;40.69;95984.44;10468239;28;1982;-62
2023/04/17 10:32:34;;;;;;;;;;;;;;;18.36;40.74;95981.28;10467715;28;2052;-63
2023/04/17 10:37:45;;;;;;;;;;;;;;;18.34;40.77;95978.88;10463044;28;2049;-63
2023/04/17 10:43:01;;;;;;;;;;;;;;;18.32;40.81;95977.56;10464305;28;2030;-62
2023/04/17 10:48:01;;;;;;;;;;;;;;;18.30;40.78;95974.41;10467357;28;1989;-61
2023/04/17 10:53:01;;;;;;;;;;;;;;;18.29;40.82;95970.19;10459200;28;2003;-61
2023/04/17 10:58:11;;;;;;;;;;;;;;;18.28;40.79;95972.03;10461772;28;2046;-62
2023/04/17 11:03:12;;;;;;;;;;;;;;;18.27;40.86;95975.69;10481800;28;2328;-62
2023/04/17 11:08:13;;;;;;;;;;;;;;;18.27;41.17;95965.22;10457607;28;1980;-62
2023/04/17 11:13:14;;;;;;;;;;;;;;;18.28;41.89;95969.41;10462934;28;1976;-62
2023/04/17 11:18:15;;;;;;;;;;;;;;;18.29;43.26;95962.31;10468797;28;2069;-62
2023/04/17 11:23:17;;;;;;;;;;;;;;;18.31;43.70;95960.22;10488059;28;2069;-62
2023/04/17 11:28:18;;;;;;;;;;;;;;;18.34;43.71;95954.50;10474593;28;1974;-62
2023/04/17 11:33:18;;;;;;;;;;;;;;;18.36;43.52;95957.66;10467804;28;2015;-62
2023/04/17 11:38:20;;;;;;;;;;;;;;;18.33;43.43;95953.69;10456300;28;2046;-61
2023/04/17 11:43:21;;;;;;;;;;;;;;;18.31;43.23;95947.91;10470001;28;2119;-62
2023/04/17 11:48:25;;;;;;;;;;;;;;;18.31;43.16;95949.72;10469303;28;2356;-61
2023/04/17 11:53:25;;;;;;;;;;;;;;;18.29;43.03;95951.81;10460158;28;2039;-61
2023/04/17 11:58:25;;;;;;;;;;;;;;;18.28;42.94;95955.50;10471900;28;2042;-61
2023/04/17 12:03:33;;;;;;;;;;;;;;;18.25;42.99;95948.94;10465512;28;2062;-61
2023/04/17 12:08:50;;;;;;;;;;;;;;;18.24;42.98;95944.72;10472661;28;2053;-61
2023/04/17 12:13:54;;;;;;;;;;;;;;;18.23;42.82;95947.59;10485839;28;2008;-63
2023/04/17 12:18:54;;;;;;;;;;;;;;;18.22;42.66;95943.38;10475555;28;2097;-61
2023/04/17 12:23:55;;;;;;;;;;;;;;;18.20;42.65;95941.00;10469213;28;2122;-62
2023/04/17 12:28:56;;;;;;;;;;;;;;;18.20;42.65;95940.22;10492254;28;1986;-61
2023/04/17 12:33:56;;;;;;;;;;;;;;;18.20;42.56;95930.50;10476961;28;2075;-62
2023/04/17 12:39:07;;;;;;;;;;;;;;;18.19;42.57;95934.19;10470216;28;2267;-64
2023/04/17 12:44:07;;;;;;;;;;;;;;;18.19;42.53;95928.94;10469935;28;1977;-61
2023/04/17 12:49:08;;;;;;;;;;;;;;;18.21;42.48;95923.44;10465237;28;2338;-64
2023/04/17 12:54:09;;;;;;;;;;;;;;;18.19;42.47;95918.47;10473669;28;2097;-63
2023/04/17 12:59:09;;;;;;;;;;;;;;;18.18;42.55;95916.84;10473424;28;2001;-63
2023/04/17 13:04:10;;;;;;;;;;;;;;;18.19;42.61;95912.41;10471321;28;1980;-63
2023/04/17 13:09:11;;;;;;;;;;;;;;;18.19;42.36;95909.78;10473516;28;2033;-62
2023/04/17 13:14:11;;;;;;;;;;;;;;;18.17;42.42;95904.00;10467163;28;2032;-62
2023/04/17 13:19:11;;;;;;;;;;;;;;;18.17;42.40;95904.81;10457726;28;2015;-63
2023/04/17 13:24:13;;;;;;;;;;;;;;;18.17;42.33;95906.63;10481372;28;2146;-63
2023/04/17 13:29:14;;;;;;;;;;;;;;;18.18;42.21;95902.94;10470815;28;2223;-62
2023/04/17 13:34:14;;;;;;;;;;;;;;;18.17;42.33;95898.75;10485764;28;2077;-62
2023/04/17 13:39:15;;;;;;;;;;;;;;;18.19;42.38;95896.66;10462367;28;1992;-62
2023/04/17 13:44:16;;;;;;;;;;;;;;;18.23;42.29;95897.75;10480176;28;2145;-62
2023/04/17 13:49:18;;;;;;;;;;;;;;;18.28;42.26;95885.44;10472785;28;2072;-62
2023/04/17 13:54:19;;;;;;;;;;;;;;;18.34;42.17;95888.88;10465947;28;2158;-62
2023/04/17 13:59:19;;;;;;;;;;;;;;;18.43;42.06;95895.22;10462180;28;2027;-62
2023/04/17 14:04:20;;;;;;;;;;;;;;;18.51;41.99;95886.88;10473819;28;2095;-62
2023/04/17 14:09:21;;;;;;;;;;;;;;;18.59;41.81;95884.53;10483132;28;2066;-61
2023/04/17 14:14:22;;;;;;;;;;;;;;;18.68;41.72;95869.09;10466607;28;2166;-62
2023/04/17 14:19:23;;;;;;;;;;;;;;;18.77;41.66;95870.16;10471358;28;2016;-62
2023/04/17 14:24:23;;;;;;;;;;;;;;;18.83;41.51;95870.97;10488062;28;2032;-62
2023/04/17 14:29:23;;;;;;;;;;;;;;;18.90;41.26;95863.63;10476679;28;2171;-62
2023/04/17 14:34:24;;;;;;;;;;;;;;;18.96;41.22;95858.09;10467285;28;2039;-62
2023/04/17 14:39:24;;;;;;;;;;;;;;;19.03;41.08;95855.25;10476184;28;1999;-62
2023/04/17 14:44:24;;;;;;;;;;;;;;;19.07;41.06;95851.84;10460282;28;2053;-62
2023/04/17 14:49:25;;;;;;;;;;;;;;;19.12;40.92;95854.47;10468571;28;2100;-62
2023/04/17 14:54:25;;;;;;;;;;;;;;;19.16;40.86;95855.53;10482778;28;1995;-62
2023/04/17 14:59:26;;;;;;;;;;;;;;;19.20;40.73;95853.97;10464604;28;2114;-62
2023/04/17 15:04:27;;;;;;;;;;;;;;;19.25;40.65;95847.88;10459570;28;2018;-62
2023/04/17 15:09:27;;;;;;;;;;;;;;;19.27;40.61;95862.34;10469310;28;2114;-62
2023/04/17 15:14:29;;;;;;;;;;;;;;;19.30;40.38;95856.59;10463281;28;2039;-62
2023/04/17 15:19:30;;;;;;;;;;;;;;;19.31;40.47;95855.53;10446502;28;2229;-62
2023/04/17 15:24:30;;;;;;;;;;;;;;;19.33;40.39;95873.69;10470028;28;2590;-61
2023/04/17 15:29:32;;;;;;;;;;;;;;;19.34;40.30;95872.63;10467257;28;2039;-62
2023/04/17 15:34:42;;;;;;;;;;;;;;;19.36;40.24;95876.59;10462719;28;1959;-62
2023/04/17 15:39:43;;;;;;;;;;;;;;;19.37;40.27;95877.38;10468014;28;1958;-62
2023/04/17 15:44:44;;;;;;;;;;;;;;;19.39;40.04;95876.06;10472492;28;1988;-62
2023/04/17 15:49:46;;;;;;;;;;;;;;;19.40;40.28;95869.75;10456447;28;2151;-62
2023/04/17 15:54:47;;;;;;;;;;;;;;;19.42;40.27;95874.75;10461510;28;2035;-62
2023/04/17 15:59:47;;;;;;;;;;;;;;;19.43;40.03;95873.72;10463649;28;2023;-62
2023/04/17 16:04:47;;;;;;;;;;;;;;;19.45;40.04;95868.97;10458804;28;2053;-62
2023/04/17 16:09:49;;;;;;;;;;;;;;;19.47;40.10;95867.63;10471878;28;2046;-62
2023/04/17 16:14:49;;;;;;;;;;;;;;;19.48;40.03;95861.34;10473882;28;2056;-62
2023/04/17 16:19:50;;;;;;;;;;;;;;;19.51;39.85;95864.50;10465611;28;2056;-62
2023/04/17 16:24:51;;;;;;;;;;;;;;;19.53;40.07;95875.53;10447574;28;2227;-61
2023/04/17 16:29:51;;;;;;;;;;;;;;;19.53;39.76;95880.78;10456548;28;2105;-61
2023/04/17 16:34:52;;;;;;;;;;;;;;;19.56;39.79;95881.06;10474024;28;2043;-61
2023/04/17 16:39:52;;;;;;;;;;;;;;;19.56;39.64;95875.78;10455948;28;2363;-61
2023/04/17 16:44:52;;;;;;;;;;;;;;;19.57;39.86;95871.31;10460636;28;2200;-61
2023/04/17 16:49:54;;;;;;;;;;;;;;;19.58;39.63;95876.31;10479149;28;2020;-61
2023/04/17 16:54:55;;;;;;;;;;;;;;;19.59;39.71;95874.47;10462532;28;2096;-61
2023/04/17 16:59:56;;;;;;;;;;;;;;;19.61;39.77;95878.44;10474757;28;2401;-63
2023/04/17 17:04:56;;;;;;;;;;;;;;;19.59;39.70;95882.38;10474761;28;2349;-64
2023/04/17 17:09:56;;;;;;;;;;;;;;;19.63;39.69;95886.03;10474551;28;2127;-64
2023/04/17 17:14:57;;;;;;;;;;;;;;;19.65;39.41;95894.47;10473819;28;2069;-63
2023/04/17 17:19:57;;;;;;;;;;;;;;;19.67;39.29;95889.72;10474536;28;2054;-63
2023/04/17 17:24:57;;;;;;;;;;;;;;;19.67;39.34;95897.63;10492217;28;2147;-63
2023/04/17 17:29:57;;;;;;;;;;;;;;;19.65;39.58;95897.88;10474191;28;2093;-63
2023/04/17 17:34:58;;;;;;;;;;;;;;;19.67;39.36;95898.41;10458568;28;2141;-66
2023/04/17 17:40:03;;;;;;;;;;;;;;;19.69;39.35;95900.78;10482730;28;1995;-63
2023/04/17 17:45:04;;;;;;;;;;;;;;;19.71;39.28;95903.91;10477569;28;2090;-63
2023/04/17 17:50:06;;;;;;;;;;;;;;;19.72;39.23;95911.53;10473992;28;2129;-62
2023/04/17 17:55:06;;;;;;;;;;;;;;;19.75;38.86;95904.97;10483642;28;2179;-62
2023/04/17 18:00:07;;;;;;;;;;;;;;;19.74;39.25;95903.41;10470391;28;2386;-64
2023/04/17 18:05:07;;;;;;;;;;;;;;;19.75;39.15;95915.50;10453550;28;2000;-63
2023/04/17 18:10:07;;;;;;;;;;;;;;;19.76;38.89;95912.63;10459558;28;2031;-62
2023/04/17 18:15:08;;;;;;;;;;;;;;;19.76;39.05;95912.63;10470904;28;2068;-62
2023/04/17 18:20:08;;;;;;;;;;;;;;;19.78;39.13;95917.59;10470843;28;2100;-63
2023/04/17 18:25:09;;;;;;;;;;;;;;;19.80;38.78;95924.19;10478413;28;2053;-63
2023/04/17 18:30:09;;;;;;;;;;;;;;;19.82;38.87;95918.66;10466027;28;2028;-62
2023/04/17 18:35:13;;;;;;;;;;;;;;;19.82;38.77;95926.56;10466451;28;2050;-62
2023/04/17 18:40:13;;;;;;;;;;;;;;;19.82;38.71;95932.59;10472149;28;2104;-62
2023/04/17 18:45:14;;;;;;;;;;;;;;;19.82;38.87;95937.06;10466230;28;1983;-62
2023/04/17 18:50:14;;;;;;;;;;;;;;;19.84;38.87;95938.41;10472579;28;1932;-62
2023/04/17 18:55:16;;;;;;;;;;;;;;;19.85;38.84;95939.16;10475643;28;2140;-63
2023/04/17 19:00:17;;;;;;;;;;;;;;;19.86;38.60;95943.38;10472829;28;2262;-63
2023/04/17 19:05:20;;;;;;;;;;;;;;;19.87;38.72;95947.56;10470751;28;2036;-63
2023/04/17 19:10:21;;;;;;;;;;;;;;;19.89;38.61;95942.84;10488506;28;1988;-63
2023/04/17 19:15:23;;;;;;;;;;;;;;;19.89;38.64;95948.91;10470201;28;2103;-63
2023/04/17 19:20:24;;;;;;;;;;;;;;;19.91;38.57;95943.38;10462563;28;2041;-62
2023/04/17 19:25:24;;;;;;;;;;;;;;;19.89;38.78;95945.47;10460369;28;2098;-63
2023/04/17 19:30:25;;;;;;;;;;;;;;;19.91;38.63;95938.91;10464469;28;2283;-63
2023/04/17 19:35:25;;;;;;;;;;;;;;;19.91;38.62;95943.38;10465784;28;2122;-62
2023/04/17 19:40:26;;;;;;;;;;;;;;;19.92;38.68;95934.44;10470401;28;2036;-63
2023/04/17 19:45:26;;;;;;;;;;;;;;;19.89;38.67;95938.38;10467781;28;2255;-63
2023/04/17 19:50:28;;;;;;;;;;;;;;;19.88;38.64;95939.44;10484194;28;2058;-63
2023/04/17 19:55:28;;;;;;;;;;;;;;;19.86;38.57;95933.66;10477105;28;2200;-61
2023/04/17 20:00:29;;;;;;;;;;;;;;;19.84;38.74;95934.97;10457360;28;2064;-63
2023/04/17 20:05:29;;;;;;;;;;;;;;;19.82;38.60;95937.06;10460241;28;2044;-62
2023/04/17 20:10:30;;;;;;;;;;;;;;;19.77;38.92;95929.16;10465051;28;2063;-62
2023/04/17 20:15:31;;;;;;;;;;;;;;;19.73;39.59;95923.66;10482335;28;2134;-62
2023/04/17 20:20:32;;;;;;;;;;;;;;;19.72;39.79;95924.69;10461004;28;2133;-62
2023/04/17 20:25:32;;;;;;;;;;;;;;;19.71;39.98;95924.97;10460838;28;2087;-62
2023/04/17 20:30:32;;;;;;;;;;;;;;;19.70;40.20;95931.28;10465897;28;2223;-62
2023/04/17 20:35:33;;;;;;;;;;;;;;;19.67;40.53;95929.19;10470725;28;2049;-61
2023/04/17 20:40:33;;;;;;;;;;;;;;;19.65;40.49;95926.03;10478020;28;1986;-62
2023/04/17 20:45:34;;;;;;;;;;;;;;;19.62;40.80;95924.69;10455487;28;2082;-62
2023/04/17 20:50:35;;;;;;;;;;;;;;;19.60;40.99;95923.41;10473199;28;2272;-62
2023/04/17 20:55:36;;;;;;;;;;;;;;;19.57;41.00;95922.09;10478125;28;2008;-63
2023/04/17 21:00:36;;;;;;;;;;;;;;;19.53;40.92;95918.41;10459758;28;2004;-62
2023/04/17 21:05:37;;;;;;;;;;;;;;;19.49;41.26;95918.13;10470274;28;2036;-63
2023/04/17 21:10:37;;;;;;;;;;;;;;;19.48;41.24;95915.75;10474216;28;2082;-62
2023/04/17 21:15:37;;;;;;;;;;;;;;;19.44;41.19;95915.50;10469371;28;2024;-62
2023/04/17 21:20:38;;;;;;;;;;;;;;;19.44;41.23;95907.63;10478328;28;1997;-63
2023/04/17 21:25:39;;;;;;;;;;;;;;;19.40;41.40;95914.44;10477937;28;2027;-63
2023/04/17 21:30:39;;;;;;;;;;;;;;;19.38;41.41;95916.56;10475335;28;2022;-63
2023/04/17 21:35:41;;;;;;;;;;;;;;;19.35;41.38;95908.41;10466511;28;2072;-62
2023/04/17 21:40:41;;;;;;;;;;;;;;;19.34;41.34;95915.50;10485211;28;2087;-61
2023/04/17 21:45:42;;;;;;;;;;;;;;;19.31;41.29;95905.47;10471844;28;1988;-62
2023/04/17 21:50:44;;;;;;;;;;;;;;;19.29;41.38;95915.44;10489385;28;2103;-61
2023/04/17 21:55:45;;;;;;;;;;;;;;;19.27;41.36;95914.13;10458341;28;2042;-62
2023/04/17 22:00:45;;;;;;;;;;;;;;;19.24;41.18;95915.44;10445364;28;2236;-60
2023/04/17 22:05:45;;;;;;;;;;;;;;;19.22;41.10;95911.50;10461469;28;2257;-62
2023/04/17 22:10:47;;;;;;;;;;;;;;;19.18;40.90;95913.06;10458765;28;2377;-61
2023/04/17 22:15:47;;;;;;;;;;;;;;;19.16;41.17;95915.97;10464535;28;2445;-61
2023/04/17 22:20:48;;;;;;;;;;;;;;;19.12;41.03;95904.41;10432847;28;1076061;-61
2023/04/17 22:25:48;;;;;;;;;;;;;;;19.11;41.18;95905.44;10469588;28;2275;-61
2023/04/17 22:30:50;;;;;;;;;;;;;;;19.09;41.00;95912.78;10462923;28;2329;-61
2023/04/17 22:35:51;;;;;;;;;;;;;;;19.10;40.96;95911.72;10461511;28;2885;-61
2023/04/17 22:40:51;;;;;;;;;;;;;;;19.07;40.98;95907.00;10467368;28;2345;-61
2023/04/17 22:45:51;;;;;;;;;;;;;;;19.06;41.00;95909.91;10464895;28;2347;-61
2023/04/17 22:50:59;;;;;;;;;;;;;;;19.05;41.08;95910.94;10470003;28;2398;-61
2023/04/17 22:56:02;;;;;;;;;;;;;;;19.02;41.02;95906.97;10466059;28;2332;-61
2023/04/17 23:01:02;;;;;;;;;;;;;;;19.00;41.12;95903.81;10470389;28;2267;-61
2023/04/17 23:06:10;;;;;;;;;;;;;;;18.99;41.11;95910.16;10470912;28;2217;-61
2023/04/17 23:11:11;;;;;;;;;;;;;;;18.98;41.04;95911.19;10483655;28;2210;-61
2023/04/17 23:16:11;;;;;;;;;;;;;;;18.96;41.10;95902.00;10477262;28;2397;-61
2023/04/17 23:21:13;;;;;;;;;;;;;;;18.95;40.90;95900.41;10476906;28;2220;-61
2023/04/17 23:26:14;;;;;;;;;;;;;;;18.93;40.96;95903.31;10472841;28;2290;-61
2023/04/17 23:31:15;;;;;;;;;;;;;;;18.92;41.05;95896.44;10491230;28;2247;-62
2023/04/17 23:36:16;;;;;;;;;;;;;;;18.90;40.98;95898.56;10462425;28;2287;-61
2023/04/17 23:41:16;;;;;;;;;;;;;;;18.89;40.83;95894.34;10463675;28;2305;-61
2023/04/17 23:46:17;;;;;;;;;;;;;;;18.87;40.75;95893.84;10475987;28;2326;-61
2023/04/17 23:51:18;;;;;;;;;;;;;;;18.86;40.79;95892.25;10470343;28;2325;-61
2023/04/17 23:56:21;;;;;;;;;;;;;;;18.85;40.97;95890.69;10465987;28;2431;-62
